createdAt,value
2023-03-14T00:00:08.291Z,317.00
2023-03-14T00:01:08.344Z,312.00
2023-03-14T00:02:08.251Z,300.00
2023-03-14T00:03:08.246Z,273.00
2023-03-14T00:04:08.273Z,271.00
2023-03-14T00:05:08.298Z,286.00
2023-03-14T00:06:08.198Z,299.00
2023-03-14T00:07:08.298Z,305.00
2023-03-14T00:08:08.228Z,304.00
2023-03-14T00:09:12.393Z,309.00
2023-03-14T00:10:08.146Z,356.00
2023-03-14T00:11:08.239Z,324.00
2023-03-14T00:12:08.178Z,322.00
2023-03-14T00:13:08.116Z,312.00
2023-03-14T00:14:08.126Z,328.00
2023-03-14T00:15:08.171Z,314.00
2023-03-14T00:16:08.157Z,327.00
2023-03-14T00:17:08.133Z,319.00
2023-03-14T00:18:08.049Z,305.00
2023-03-14T00:19:08.028Z,300.00
2023-03-14T00:20:08.070Z,298.00
2023-03-14T00:21:08.097Z,291.00
2023-03-14T00:22:08.047Z,306.00
2023-03-14T00:23:08.025Z,317.00
2023-03-14T00:24:07.962Z,314.00
2023-03-14T00:25:07.961Z,306.00
2023-03-14T00:26:08.000Z,312.00
2023-03-14T00:27:07.995Z,315.00
2023-03-14T00:28:07.971Z,339.00
2023-03-14T00:29:07.895Z,316.00
2023-03-14T00:30:07.947Z,310.00
2023-03-14T00:31:07.968Z,317.00
2023-03-14T00:32:07.913Z,316.00
2023-03-14T00:33:07.905Z,313.00
2023-03-14T00:34:07.872Z,304.00
2023-03-14T00:35:07.816Z,309.00
2023-03-14T00:36:07.840Z,313.00
2023-03-14T00:37:07.795Z,315.00
2023-03-14T00:38:07.824Z,315.00
2023-03-14T00:39:07.776Z,312.00
2023-03-14T00:40:07.746Z,311.00
2023-03-14T00:41:07.779Z,309.00
2023-03-14T00:42:07.776Z,311.00
2023-03-14T00:43:07.770Z,309.00
2023-03-14T00:44:07.694Z,319.00
2023-03-14T00:45:07.683Z,319.00
2023-03-14T00:46:07.769Z,321.00
2023-03-14T00:47:07.850Z,321.00
2023-03-14T00:48:07.661Z,326.00
2023-03-14T00:49:07.679Z,325.00
2023-03-14T00:50:07.623Z,327.00
2023-03-14T00:51:07.644Z,325.00
2023-03-14T00:52:07.618Z,320.00
2023-03-14T00:53:07.643Z,322.00
2023-03-14T00:54:07.562Z,321.00
2023-03-14T00:55:07.606Z,337.00
2023-03-14T00:56:07.636Z,331.00
2023-03-14T00:57:07.573Z,332.00
2023-03-14T00:58:07.506Z,329.00
2023-03-14T00:59:07.541Z,330.00
2023-03-14T01:00:07.538Z,326.00
2023-03-14T01:01:07.462Z,326.00
2023-03-14T01:02:07.569Z,323.00
2023-03-14T01:03:07.555Z,325.00
2023-03-14T01:04:07.494Z,325.00
2023-03-14T01:05:07.412Z,324.00
2023-03-14T01:06:07.410Z,313.00
2023-03-14T01:07:07.415Z,305.00
2023-03-14T01:08:07.429Z,299.00
2023-03-14T01:09:07.411Z,291.00
2023-03-14T01:10:07.399Z,290.00
2023-03-14T01:11:07.375Z,296.00
2023-03-14T01:12:07.363Z,297.00
2023-03-14T01:13:07.333Z,295.00
2023-03-14T01:14:07.298Z,298.00
2023-03-14T01:15:07.331Z,295.00
2023-03-14T01:16:07.373Z,292.00
2023-03-14T01:17:07.304Z,290.00
2023-03-14T01:18:07.320Z,284.00
2023-03-14T01:19:07.290Z,283.00
2023-03-14T01:20:07.297Z,278.00
2023-03-14T01:21:07.193Z,274.00
2023-03-14T01:22:07.272Z,270.00
2023-03-14T01:23:07.208Z,267.00
2023-03-14T01:24:07.213Z,265.00
2023-03-14T01:25:07.215Z,266.00
2023-03-14T01:26:07.206Z,271.00
2023-03-14T01:27:07.166Z,270.00
2023-03-14T01:28:07.117Z,269.00
2023-03-14T01:29:07.163Z,267.00
2023-03-14T01:30:07.131Z,267.00
2023-03-14T01:31:07.147Z,267.00
2023-03-14T01:32:07.128Z,267.00
2023-03-14T01:33:07.093Z,266.00
2023-03-14T01:34:07.089Z,264.00
2023-03-14T01:35:07.105Z,267.00
2023-03-14T01:36:07.088Z,266.00
2023-03-14T01:37:06.978Z,266.00
2023-03-14T01:38:07.056Z,263.00
2023-03-14T01:39:07.000Z,266.00
2023-03-14T01:40:06.993Z,263.00
2023-03-14T01:41:06.986Z,265.00
2023-03-14T01:42:06.982Z,265.00
2023-03-14T01:43:06.964Z,266.00
2023-03-14T01:44:06.969Z,264.00
2023-03-14T01:45:06.964Z,273.00
2023-03-14T01:46:06.919Z,273.00
2023-03-14T01:47:06.851Z,274.00
2023-03-14T01:48:06.922Z,266.00
2023-03-14T01:49:06.869Z,273.00
2023-03-14T01:50:06.832Z,271.00
2023-03-14T01:51:06.861Z,275.00
2023-03-14T01:52:06.795Z,285.00
2023-03-14T01:53:06.781Z,284.00
2023-03-14T01:54:06.768Z,284.00
2023-03-14T01:55:06.837Z,282.00
2023-03-14T01:56:06.776Z,295.00
2023-03-14T01:57:06.723Z,304.00
2023-03-14T01:58:06.706Z,321.00
2023-03-14T01:59:06.746Z,312.00
2023-03-14T02:00:06.727Z,324.00
2023-03-14T02:01:06.802Z,325.00
2023-03-14T02:02:06.677Z,324.00
2023-03-14T02:03:06.691Z,325.00
2023-03-14T02:04:06.688Z,315.00
2023-03-14T02:05:06.614Z,318.00
2023-03-14T02:06:06.653Z,316.00
2023-03-14T02:07:06.604Z,309.00
2023-03-14T02:08:06.625Z,319.00
2023-03-14T02:09:06.679Z,321.00
2023-03-14T02:10:06.549Z,322.00
2023-03-14T02:11:06.589Z,331.00
2023-03-14T02:12:06.563Z,328.00
2023-03-14T02:13:06.508Z,329.00
2023-03-14T02:14:06.543Z,330.00
2023-03-14T02:15:06.469Z,325.00
2023-03-14T02:16:06.544Z,335.00
2023-03-14T02:17:06.468Z,334.00
2023-03-14T02:18:06.433Z,334.00
2023-03-14T02:19:06.444Z,321.00
2023-03-14T02:20:06.411Z,318.00
2023-03-14T02:21:06.432Z,323.00
2023-03-14T02:22:06.429Z,325.00
2023-03-14T02:23:06.368Z,317.00
2023-03-14T02:24:06.409Z,323.00
2023-03-14T02:25:06.361Z,326.00
2023-03-14T02:26:06.381Z,334.00
2023-03-14T02:27:06.385Z,328.00
2023-03-14T02:28:06.315Z,319.00
2023-03-14T02:29:06.290Z,311.00
2023-03-14T02:30:06.294Z,301.00
2023-03-14T02:31:06.301Z,296.00
2023-03-14T02:32:06.251Z,276.00
2023-03-14T02:33:06.238Z,276.00
2023-03-14T02:34:06.213Z,271.00
2023-03-14T02:35:06.279Z,274.00
2023-03-14T02:36:06.239Z,271.00
2023-03-14T02:37:06.226Z,270.00
2023-03-14T02:38:06.238Z,272.00
2023-03-14T02:39:06.190Z,273.00
2023-03-14T02:40:06.235Z,270.00
2023-03-14T02:41:06.119Z,265.00
2023-03-14T02:42:06.188Z,265.00
2023-03-14T02:43:06.160Z,262.00
2023-03-14T02:44:06.142Z,263.00
2023-03-14T02:45:06.121Z,265.00
2023-03-14T02:46:06.162Z,261.00
2023-03-14T02:47:06.037Z,260.00
2023-03-14T02:48:06.099Z,257.00
2023-03-14T02:49:06.016Z,266.00
2023-03-14T02:50:06.068Z,276.00
2023-03-14T02:51:06.005Z,277.00
2023-03-14T02:52:06.019Z,293.00
2023-03-14T02:53:05.986Z,299.00
2023-03-14T02:54:05.992Z,299.00
2023-03-14T02:55:05.992Z,312.00
2023-03-14T02:56:06.005Z,323.00
2023-03-14T02:57:05.905Z,323.00
2023-03-14T02:58:05.930Z,325.00
2023-03-14T02:59:05.912Z,322.00
2023-03-14T03:00:05.919Z,327.00
2023-03-14T03:01:05.937Z,328.00
2023-03-14T03:02:05.837Z,313.00
2023-03-14T03:03:05.889Z,307.00
2023-03-14T03:04:05.816Z,300.00
2023-03-14T03:05:05.837Z,291.00
2023-03-14T03:06:05.800Z,285.00
2023-03-14T03:07:05.810Z,286.00
2023-03-14T03:08:05.810Z,281.00
2023-03-14T03:09:05.757Z,283.00
2023-03-14T03:10:05.783Z,286.00
2023-03-14T03:11:05.733Z,300.00
2023-03-14T03:12:05.764Z,304.00
2023-03-14T03:13:05.733Z,301.00
2023-03-14T03:14:05.674Z,308.00
2023-03-14T03:15:05.678Z,317.00
2023-03-14T03:16:05.698Z,320.00
2023-03-14T03:17:05.680Z,322.00
2023-03-14T03:18:05.621Z,309.00
2023-03-14T03:19:05.650Z,307.00
2023-03-14T03:20:05.663Z,306.00
2023-03-14T03:21:05.670Z,301.00
2023-03-14T03:22:05.584Z,301.00
2023-03-14T03:23:05.612Z,300.00
2023-03-14T03:24:05.708Z,300.00
2023-03-14T03:25:05.533Z,298.00
2023-03-14T03:26:05.571Z,303.00
2023-03-14T03:27:05.566Z,303.00
2023-03-14T03:28:05.515Z,308.00
2023-03-14T03:29:05.539Z,304.00
2023-03-14T03:30:05.476Z,301.00
2023-03-14T03:31:05.484Z,294.00
2023-03-14T03:32:05.519Z,291.00
2023-03-14T03:33:05.433Z,293.00
2023-03-14T03:34:05.441Z,290.00
2023-03-14T03:35:05.396Z,297.00
2023-03-14T03:36:05.476Z,302.00
2023-03-14T03:37:05.462Z,305.00
2023-03-14T03:38:05.410Z,301.00
2023-03-14T03:39:05.416Z,237.00
2023-03-14T03:40:05.341Z,225.00
2023-03-14T03:41:05.392Z,229.00
2023-03-14T03:42:05.380Z,226.00
2023-03-14T03:43:05.352Z,224.00
2023-03-14T03:44:05.283Z,224.00
2023-03-14T03:45:05.316Z,226.00
2023-03-14T03:46:05.346Z,224.00
2023-03-14T03:47:05.260Z,222.00
2023-03-14T03:48:05.308Z,228.00
2023-03-14T03:49:05.284Z,221.00
2023-03-14T03:50:05.220Z,223.00
2023-03-14T03:51:05.258Z,226.00
2023-03-14T03:52:05.207Z,225.00
2023-03-14T03:53:05.204Z,223.00
2023-03-14T03:54:05.173Z,223.00
2023-03-14T03:55:05.160Z,222.00
2023-03-14T03:56:05.129Z,220.00
2023-03-14T03:57:05.119Z,220.00
2023-03-14T03:58:05.127Z,215.00
2023-03-14T03:59:05.156Z,218.00
2023-03-14T04:00:05.084Z,220.00
2023-03-14T04:01:05.105Z,222.00
2023-03-14T04:02:05.140Z,224.00
2023-03-14T04:03:05.085Z,219.00
2023-03-14T04:04:05.153Z,223.00
2023-03-14T04:05:05.005Z,222.00
2023-03-14T04:06:05.145Z,221.00
2023-03-14T04:07:05.048Z,216.00
2023-03-14T04:08:04.983Z,217.00
2023-03-14T04:09:04.951Z,217.00
2023-03-14T04:10:05.037Z,219.00
2023-03-14T04:11:05.008Z,218.00
2023-03-14T04:12:04.914Z,219.00
2023-03-14T04:13:04.896Z,214.00
2023-03-14T04:14:04.879Z,221.00
2023-03-14T04:15:04.939Z,221.00
2023-03-14T04:16:04.886Z,218.00
2023-03-14T04:17:04.928Z,217.00
2023-03-14T04:18:04.895Z,214.00
2023-03-14T04:19:04.881Z,213.00
2023-03-14T04:20:04.809Z,211.00
2023-03-14T04:21:04.785Z,210.00
2023-03-14T04:22:04.791Z,211.00
2023-03-14T04:23:04.780Z,213.00
2023-03-14T04:24:04.820Z,213.00
2023-03-14T04:25:04.834Z,214.00
2023-03-14T04:26:04.808Z,214.00
2023-03-14T04:27:04.760Z,215.00
2023-03-14T04:28:04.758Z,214.00
2023-03-14T04:29:04.743Z,213.00
2023-03-14T04:30:04.802Z,213.00
2023-03-14T04:31:04.682Z,212.00
2023-03-14T04:32:04.645Z,215.00
2023-03-14T04:33:04.683Z,211.00
2023-03-14T04:34:04.665Z,212.00
2023-03-14T04:35:04.669Z,210.00
2023-03-14T04:36:04.662Z,213.00
2023-03-14T04:37:04.634Z,215.00
2023-03-14T04:38:04.609Z,216.00
2023-03-14T04:39:04.597Z,220.00
2023-03-14T04:40:04.590Z,221.00
2023-03-14T04:41:04.575Z,221.00
2023-03-14T04:42:04.532Z,217.00
2023-03-14T04:43:04.566Z,214.00
2023-03-14T04:44:04.538Z,215.00
2023-03-14T04:45:04.472Z,217.00
2023-03-14T04:46:04.511Z,217.00
2023-03-14T04:47:04.451Z,216.00
2023-03-14T04:48:04.448Z,214.00
2023-03-14T04:49:04.458Z,212.00
2023-03-14T04:50:04.479Z,214.00
2023-03-14T04:51:04.433Z,217.00
2023-03-14T04:52:04.395Z,222.00
2023-03-14T04:53:04.419Z,224.00
2023-03-14T04:54:04.439Z,221.00
2023-03-14T04:55:04.328Z,220.00
2023-03-14T04:56:04.399Z,222.00
2023-03-14T04:57:04.307Z,223.00
2023-03-14T04:58:04.298Z,223.00
2023-03-14T04:59:04.298Z,223.00
2023-03-14T05:00:04.278Z,221.00
2023-03-14T05:01:04.266Z,219.00
2023-03-14T05:02:04.255Z,220.00
2023-03-14T05:03:04.320Z,218.00
2023-03-14T05:04:04.201Z,220.00
2023-03-14T05:05:04.259Z,220.00
2023-03-14T05:06:04.183Z,222.00
2023-03-14T05:07:04.165Z,224.00
2023-03-14T05:08:04.150Z,225.00
2023-03-14T05:09:04.166Z,228.00
2023-03-14T05:10:04.205Z,226.00
2023-03-14T05:11:04.149Z,228.00
2023-03-14T05:12:04.169Z,230.00
2023-03-14T05:13:04.117Z,231.00
2023-03-14T05:14:04.078Z,227.00
2023-03-14T05:15:04.116Z,225.00
2023-03-14T05:16:04.126Z,227.00
2023-03-14T05:17:04.085Z,228.00
2023-03-14T05:18:04.018Z,226.00
2023-03-14T05:19:04.047Z,228.00
2023-03-14T05:20:03.984Z,226.00
2023-03-14T05:21:04.047Z,227.00
2023-03-14T05:22:03.967Z,228.00
2023-03-14T05:23:03.962Z,226.00
2023-03-14T05:24:03.943Z,226.00
2023-03-14T05:25:03.990Z,226.00
2023-03-14T05:26:03.902Z,227.00
2023-03-14T05:27:03.978Z,228.00
2023-03-14T05:28:03.896Z,226.00
2023-03-14T05:29:03.918Z,228.00
2023-03-14T05:30:03.852Z,223.00
2023-03-14T05:31:03.852Z,226.00
2023-03-14T05:32:03.848Z,227.00
2023-03-14T05:33:03.823Z,226.00
2023-03-14T05:34:03.801Z,224.00
2023-03-14T05:35:03.856Z,223.00
2023-03-14T05:36:03.819Z,219.00
2023-03-14T05:37:03.840Z,219.00
2023-03-14T05:38:03.799Z,218.00
2023-03-14T05:39:03.761Z,215.00
2023-03-14T05:40:03.793Z,216.00
2023-03-14T05:41:03.792Z,215.00
2023-03-14T05:42:03.792Z,212.00
2023-03-14T05:43:03.760Z,213.00
2023-03-14T05:44:03.754Z,212.00
2023-03-14T05:45:03.733Z,210.00
2023-03-14T05:46:03.776Z,208.00
2023-03-14T05:47:03.684Z,209.00
2023-03-14T05:48:03.646Z,211.00
2023-03-14T05:49:03.622Z,209.00
2023-03-14T05:50:03.656Z,211.00
2023-03-14T05:51:03.646Z,212.00
2023-03-14T05:52:03.562Z,209.00
2023-03-14T05:53:03.608Z,211.00
2023-03-14T05:54:03.608Z,212.00
2023-03-14T05:55:03.536Z,213.00
2023-03-14T05:56:03.511Z,215.00
2023-03-14T05:57:03.523Z,213.00
2023-03-14T05:58:03.500Z,213.00
2023-03-14T05:59:03.474Z,213.00
2023-03-14T06:00:03.501Z,216.00
2023-03-14T06:01:03.481Z,214.00
2023-03-14T06:02:03.527Z,213.00
2023-03-14T06:03:03.828Z,215.00
2023-03-14T06:04:03.396Z,215.00
2023-03-14T06:05:03.396Z,215.00
2023-03-14T06:06:03.366Z,212.00
2023-03-14T06:07:03.417Z,211.00
2023-03-14T06:08:03.350Z,208.00
2023-03-14T06:09:03.406Z,210.00
2023-03-14T06:10:03.403Z,211.00
2023-03-14T06:11:03.391Z,215.00
2023-03-14T06:12:03.386Z,212.00
2023-03-14T06:13:03.327Z,214.00
2023-03-14T06:14:03.339Z,219.00
2023-03-14T06:15:03.256Z,220.00
2023-03-14T06:16:03.290Z,217.00
2023-03-14T06:17:03.238Z,217.00
2023-03-14T06:18:03.256Z,220.00
2023-03-14T06:19:03.211Z,222.00
2023-03-14T06:20:03.295Z,233.00
2023-03-14T06:21:03.168Z,237.00
2023-03-14T06:22:03.300Z,233.00
2023-03-14T06:23:03.212Z,233.00
2023-03-14T06:24:03.137Z,232.00
2023-03-14T06:25:03.151Z,243.00
2023-03-14T06:26:03.175Z,250.00
2023-03-14T06:27:03.229Z,246.00
2023-03-14T06:28:03.130Z,249.00
2023-03-14T06:29:03.064Z,256.00
2023-03-14T06:30:03.139Z,254.00
2023-03-14T06:31:03.138Z,253.00
2023-03-14T06:32:03.088Z,262.00
2023-03-14T06:33:03.114Z,257.00
2023-03-14T06:34:03.013Z,258.00
2023-03-14T06:35:02.988Z,250.00
2023-03-14T06:36:03.045Z,265.00
2023-03-14T06:37:02.958Z,275.00
2023-03-14T06:38:03.006Z,266.00
2023-03-14T06:39:03.018Z,265.00
2023-03-14T06:40:02.932Z,270.00
2023-03-14T06:41:02.972Z,269.00
2023-03-14T06:42:02.889Z,267.00
2023-03-14T06:43:02.884Z,266.00
2023-03-14T06:44:02.875Z,272.00
2023-03-14T06:45:02.862Z,268.00
2023-03-14T06:46:02.993Z,272.00
2023-03-14T06:47:02.891Z,265.00
2023-03-14T06:48:02.810Z,252.00
2023-03-14T06:49:02.876Z,263.00
2023-03-14T06:50:02.848Z,267.00
2023-03-14T06:51:02.772Z,271.00
2023-03-14T06:52:02.818Z,268.00
2023-03-14T06:53:02.831Z,273.00
2023-03-14T06:54:02.783Z,279.00
2023-03-14T06:55:02.734Z,274.00
2023-03-14T06:56:02.778Z,269.00
2023-03-14T06:57:02.689Z,276.00
2023-03-14T06:58:02.694Z,264.00
2023-03-14T06:59:02.731Z,278.00
2023-03-14T07:00:02.700Z,282.00
2023-03-14T07:01:02.714Z,300.00
2023-03-14T07:02:02.708Z,284.00
2023-03-14T07:03:02.679Z,278.00
2023-03-14T07:04:02.640Z,283.00
2023-03-14T07:05:02.652Z,289.00
2023-03-14T07:06:03.546Z,286.00
2023-03-14T07:07:02.569Z,287.00
2023-03-14T07:08:02.539Z,284.00
2023-03-14T07:09:03.819Z,284.00
2023-03-14T07:10:02.574Z,284.00
2023-03-14T07:11:02.565Z,285.00
2023-03-14T07:12:02.488Z,284.00
2023-03-14T07:13:02.488Z,282.00
2023-03-14T07:14:02.494Z,281.00
2023-03-14T07:15:17.092Z,285.00
2023-03-14T07:16:02.498Z,285.00
2023-03-14T07:17:02.431Z,287.00
2023-03-14T07:18:02.446Z,292.00
2023-03-14T07:19:02.394Z,291.00
2023-03-14T07:20:02.506Z,293.00
2023-03-14T07:21:02.422Z,293.00
2023-03-14T07:22:02.378Z,293.00
2023-03-14T07:23:02.404Z,289.00
2023-03-14T07:24:02.383Z,288.00
2023-03-14T07:25:02.371Z,287.00
2023-03-14T07:26:02.349Z,286.00
2023-03-14T07:27:02.365Z,286.00
2023-03-14T07:28:02.324Z,289.00
2023-03-14T07:29:02.285Z,289.00
2023-03-14T07:30:02.316Z,290.00
2023-03-14T07:31:02.282Z,290.00
2023-03-14T07:32:02.286Z,289.00
2023-03-14T07:33:02.307Z,291.00
2023-03-14T07:34:02.244Z,293.00
2023-03-14T07:35:02.188Z,295.00
2023-03-14T07:36:02.276Z,292.00
2023-03-14T07:37:02.252Z,292.00
2023-03-14T07:38:02.202Z,291.00
2023-03-14T07:39:02.147Z,291.00
2023-03-14T07:40:02.140Z,285.00
2023-03-14T07:41:02.119Z,286.00
2023-03-14T07:42:02.149Z,286.00
2023-03-14T07:43:02.138Z,288.00
2023-03-14T07:44:02.052Z,289.00
2023-03-14T07:45:02.116Z,288.00
2023-03-14T07:46:02.121Z,286.00
2023-03-14T07:47:02.677Z,287.00
2023-03-14T07:48:02.077Z,288.00
2023-03-14T07:49:02.048Z,288.00
2023-03-14T07:50:02.077Z,286.00
2023-03-14T07:51:01.968Z,288.00
2023-03-14T07:52:01.958Z,288.00
2023-03-14T07:53:01.952Z,288.00
2023-03-14T07:54:01.930Z,284.00
2023-03-14T07:55:01.968Z,285.00
2023-03-14T07:56:01.960Z,287.00
2023-03-14T07:57:01.924Z,287.00
2023-03-14T07:58:01.876Z,289.00
2023-03-14T07:59:01.860Z,282.00
2023-03-14T08:00:01.908Z,289.00
2023-03-14T08:01:01.897Z,287.00
2023-03-14T08:02:01.816Z,288.00
2023-03-14T08:03:01.972Z,288.00
2023-03-14T08:04:01.975Z,284.00
2023-03-14T08:05:01.831Z,285.00
2023-03-14T08:06:01.791Z,283.00
2023-03-14T08:07:01.867Z,286.00
2023-03-14T08:08:01.754Z,289.00
2023-03-14T08:09:01.797Z,289.00
2023-03-14T08:10:01.773Z,294.00
2023-03-14T08:11:01.760Z,297.00
2023-03-14T08:12:01.728Z,303.00
2023-03-14T08:13:01.786Z,304.00
2023-03-14T08:14:01.930Z,306.00
2023-03-14T08:15:01.654Z,305.00
2023-03-14T08:16:01.705Z,307.00
2023-03-14T08:17:01.620Z,308.00
2023-03-14T08:18:01.654Z,306.00
2023-03-14T08:19:01.678Z,306.00
2023-03-14T08:20:01.587Z,305.00
2023-03-14T08:21:01.596Z,301.00
2023-03-14T08:22:01.604Z,300.00
2023-03-14T08:23:01.593Z,301.00
2023-03-14T08:24:01.586Z,300.00
2023-03-14T08:25:02.704Z,300.00
2023-03-14T08:26:01.534Z,302.00
2023-03-14T08:27:01.498Z,304.00
2023-03-14T08:28:01.484Z,305.00
2023-03-14T08:29:01.517Z,303.00
2023-03-14T08:30:01.505Z,301.00
2023-03-14T08:31:01.725Z,303.00
2023-03-14T08:32:01.531Z,304.00
2023-03-14T08:33:01.437Z,303.00
2023-03-14T08:34:01.455Z,303.00
2023-03-14T08:35:01.442Z,302.00
2023-03-14T08:36:01.427Z,302.00
2023-03-14T08:37:02.734Z,302.00
2023-03-14T08:38:01.395Z,300.00
2023-03-14T08:39:01.481Z,301.00
2023-03-14T08:40:01.308Z,301.00
2023-03-14T08:41:01.346Z,300.00
2023-03-14T08:42:01.391Z,300.00
2023-03-14T08:43:01.267Z,300.00
2023-03-14T08:44:01.332Z,300.00
2023-03-14T08:45:01.334Z,299.00
2023-03-14T08:46:01.234Z,291.00
2023-03-14T08:47:01.272Z,298.00
2023-03-14T08:48:01.308Z,298.00
2023-03-14T08:49:01.194Z,298.00
2023-03-14T08:50:01.338Z,298.00
2023-03-14T08:51:01.188Z,296.00
2023-03-14T08:52:01.212Z,295.00
2023-03-14T08:53:01.254Z,296.00
2023-03-14T08:54:01.120Z,297.00
2023-03-14T08:55:01.128Z,298.00
2023-03-14T08:56:01.107Z,300.00
2023-03-14T08:57:01.086Z,301.00
2023-03-14T08:58:01.133Z,300.00
2023-03-14T08:59:01.126Z,299.00
2023-03-14T09:00:01.120Z,299.00
2023-03-14T09:01:01.135Z,298.00
2023-03-14T09:02:01.029Z,299.00
2023-03-14T09:03:01.045Z,297.00
2023-03-14T09:04:01.089Z,297.00
2023-03-14T09:05:01.017Z,298.00
2023-03-14T09:06:00.958Z,299.00
2023-03-14T09:07:01.006Z,298.00
2023-03-14T09:08:01.009Z,299.00
2023-03-14T09:09:01.176Z,297.00
2023-03-14T09:10:00.921Z,296.00
2023-03-14T09:11:00.914Z,295.00
2023-03-14T09:12:00.897Z,295.00
2023-03-14T09:13:00.886Z,298.00
2023-03-14T09:14:00.887Z,300.00
2023-03-14T09:15:00.862Z,301.00
2023-03-14T09:16:00.904Z,301.00
2023-03-14T09:17:00.871Z,302.00
2023-03-14T09:18:00.923Z,306.00
2023-03-14T09:19:00.886Z,306.00
2023-03-14T09:20:00.894Z,302.00
2023-03-14T09:21:00.838Z,301.00
2023-03-14T09:22:00.805Z,299.00
2023-03-14T09:23:00.767Z,298.00
2023-03-14T09:24:00.795Z,298.00
2023-03-14T09:25:00.765Z,301.00
2023-03-14T09:26:00.998Z,304.00
2023-03-14T09:27:00.799Z,303.00
2023-03-14T09:28:00.738Z,305.00
2023-03-14T09:29:00.757Z,306.00
2023-03-14T09:30:00.705Z,307.00
2023-03-14T09:31:00.735Z,310.00
2023-03-14T09:32:00.807Z,310.00
2023-03-14T09:33:00.705Z,310.00
2023-03-14T09:34:00.684Z,308.00
2023-03-14T09:35:00.592Z,310.00
2023-03-14T09:36:00.652Z,313.00
2023-03-14T09:37:00.643Z,314.00
2023-03-14T09:38:00.734Z,316.00
2023-03-14T09:39:00.659Z,317.00
2023-03-14T09:40:00.539Z,316.00
2023-03-14T09:41:01.376Z,319.00
2023-03-14T09:42:00.588Z,319.00
2023-03-14T09:43:00.594Z,319.00
2023-03-14T09:44:00.575Z,319.00
2023-03-14T09:45:00.491Z,319.00
2023-03-14T09:46:00.586Z,320.00
2023-03-14T09:47:00.562Z,322.00
2023-03-14T09:48:00.529Z,322.00
2023-03-14T09:49:00.488Z,327.00
2023-03-14T09:50:00.595Z,330.00
2023-03-14T09:51:00.461Z,332.00
2023-03-14T09:52:01.893Z,336.00
2023-03-14T09:53:00.377Z,337.00
2023-03-14T09:54:00.394Z,340.00
2023-03-14T09:55:00.388Z,339.00
2023-03-14T09:56:00.359Z,340.00
2023-03-14T09:57:00.563Z,345.00
2023-03-14T09:58:00.278Z,345.00
2023-03-14T09:59:00.303Z,348.00
2023-03-14T10:00:00.314Z,343.00
2023-03-14T10:01:00.409Z,345.00
2023-03-14T10:02:00.220Z,343.00
2023-03-14T10:03:00.197Z,342.00
2023-03-14T10:04:00.287Z,341.00
2023-03-14T10:05:06.801Z,338.00
2023-03-14T10:06:00.296Z,336.00
2023-03-14T10:07:00.162Z,335.00
2023-03-14T10:08:00.132Z,332.00
2023-03-14T10:09:00.215Z,333.00
2023-03-14T10:10:00.142Z,333.00
2023-03-14T10:11:00.162Z,330.00
2023-03-14T10:12:00.791Z,326.00
2023-03-14T10:13:00.233Z,323.00
2023-03-14T10:14:00.076Z,321.00
2023-03-14T10:15:00.114Z,318.00
2023-03-14T10:16:03.337Z,317.00
2023-03-14T10:17:00.557Z,317.00
2023-03-14T10:18:01.013Z,315.00
2023-03-14T10:19:00.737Z,315.00
2023-03-14T10:20:00.091Z,314.00
2023-03-14T10:21:00.118Z,314.00
2023-03-14T10:22:00.023Z,313.00
2023-03-14T10:23:00.105Z,313.00
2023-03-14T10:24:00.019Z,312.00
2023-03-14T10:24:59.955Z,312.00
2023-03-14T10:26:01.490Z,312.00
2023-03-14T10:26:59.887Z,312.00
2023-03-14T10:27:59.884Z,314.00
2023-03-14T10:28:59.907Z,315.00
2023-03-14T10:30:00.026Z,315.00
2023-03-14T10:30:59.916Z,313.00
2023-03-14T10:31:59.873Z,311.00
2023-03-14T10:32:59.940Z,312.00
2023-03-14T10:34:00.134Z,312.00
2023-03-14T10:34:59.903Z,310.00
2023-03-14T10:35:59.903Z,309.00
2023-03-14T10:37:00.043Z,308.00
2023-03-14T10:38:00.067Z,304.00
2023-03-14T10:38:59.838Z,304.00
2023-03-14T10:39:59.818Z,305.00
2023-03-14T10:40:59.754Z,306.00
2023-03-14T10:42:00.069Z,308.00
2023-03-14T10:42:59.848Z,306.00
2023-03-14T10:43:59.773Z,308.00
2023-03-14T10:44:59.665Z,308.00
2023-03-14T10:45:59.676Z,307.00
2023-03-14T10:46:59.640Z,306.00
2023-03-14T10:47:59.632Z,306.00
2023-03-14T10:48:59.608Z,305.00
2023-03-14T10:49:59.595Z,308.00
2023-03-14T10:50:59.566Z,307.00
2023-03-14T10:51:59.838Z,309.00
2023-03-14T10:53:02.390Z,309.00
2023-03-14T10:53:59.590Z,310.00
2023-03-14T10:54:59.535Z,311.00
2023-03-14T10:55:59.522Z,311.00
2023-03-14T10:56:59.499Z,309.00
2023-03-14T10:57:59.505Z,306.00
2023-03-14T10:58:59.457Z,305.00
2023-03-14T10:59:59.490Z,306.00
2023-03-14T11:00:59.450Z,307.00
2023-03-14T11:01:59.451Z,309.00
2023-03-14T11:02:59.406Z,307.00
2023-03-14T11:03:59.437Z,306.00
2023-03-14T11:04:59.459Z,305.00
2023-03-14T11:05:59.371Z,307.00
2023-03-14T11:06:59.598Z,307.00
2023-03-14T11:07:59.440Z,306.00
2023-03-14T11:08:59.350Z,308.00
2023-03-14T11:09:59.342Z,306.00
2023-03-14T11:10:59.355Z,307.00
2023-03-14T11:11:59.313Z,309.00
2023-03-14T11:12:59.292Z,311.00
2023-03-14T11:13:59.296Z,311.00
2023-03-14T11:14:59.271Z,309.00
2023-03-14T11:15:59.301Z,309.00
2023-03-14T11:16:59.237Z,308.00
2023-03-14T11:17:59.218Z,310.00
2023-03-14T11:18:59.223Z,310.00
2023-03-14T11:19:59.193Z,309.00
2023-03-14T11:20:59.202Z,307.00
2023-03-14T11:21:59.194Z,306.00
2023-03-14T11:22:59.148Z,306.00
2023-03-14T11:23:59.158Z,304.00
2023-03-14T11:24:59.132Z,305.00
2023-03-14T11:25:59.130Z,305.00
2023-03-14T11:26:59.120Z,306.00
2023-03-14T11:27:59.120Z,305.00
2023-03-14T11:28:59.087Z,303.00
2023-03-14T11:29:59.688Z,303.00
2023-03-14T11:30:59.089Z,303.00
2023-03-14T11:31:59.057Z,305.00
2023-03-14T11:32:59.097Z,305.00
2023-03-14T11:33:59.053Z,305.00
2023-03-14T11:34:59.007Z,303.00
2023-03-14T11:35:59.000Z,303.00
2023-03-14T11:36:58.973Z,303.00
2023-03-14T11:37:58.972Z,304.00
2023-03-14T11:38:58.953Z,303.00
2023-03-14T11:39:58.965Z,301.00
2023-03-14T11:40:58.940Z,299.00
2023-03-14T11:41:59.343Z,300.00
2023-03-14T11:42:59.272Z,299.00
2023-03-14T11:43:59.299Z,301.00
2023-03-14T11:44:59.240Z,303.00
2023-03-14T11:45:58.935Z,306.00
2023-03-14T11:47:00.633Z,306.00
2023-03-14T11:47:58.844Z,305.00
2023-03-14T11:48:58.807Z,305.00
2023-03-14T11:49:58.812Z,304.00
2023-03-14T11:50:58.799Z,304.00
2023-03-14T11:51:58.790Z,304.00
2023-03-14T11:52:58.750Z,305.00
2023-03-14T11:53:58.749Z,304.00
2023-03-14T11:54:58.759Z,304.00
2023-03-14T11:55:58.742Z,305.00
2023-03-14T11:56:58.717Z,305.00
2023-03-14T11:57:58.710Z,305.00
2023-03-14T11:58:58.686Z,306.00
2023-03-14T11:59:58.684Z,306.00
2023-03-14T12:00:58.663Z,305.00
2023-03-14T12:01:58.773Z,308.00
2023-03-14T12:02:58.619Z,310.00
2023-03-14T12:03:58.647Z,308.00
2023-03-14T12:04:58.602Z,308.00
2023-03-14T12:05:58.601Z,308.00
2023-03-14T12:06:58.579Z,305.00
2023-03-14T12:07:58.589Z,301.00
2023-03-14T12:08:58.592Z,298.00
2023-03-14T12:09:58.552Z,288.00
2023-03-14T12:10:58.665Z,281.00
2023-03-14T12:11:58.512Z,284.00
2023-03-14T12:12:58.485Z,279.00
2023-03-14T12:13:58.492Z,286.00
2023-03-14T12:14:58.474Z,279.00
2023-03-14T12:15:58.501Z,277.00
2023-03-14T12:16:58.450Z,286.00
2023-03-14T12:17:58.434Z,282.00
2023-03-14T12:18:58.417Z,281.00
2023-03-14T12:19:58.420Z,281.00
2023-03-14T12:20:58.381Z,286.00
2023-03-14T12:21:58.390Z,287.00
2023-03-14T12:22:58.453Z,277.00
2023-03-14T12:23:58.409Z,257.00
2023-03-14T12:24:58.342Z,231.00
2023-03-14T12:25:58.378Z,225.00
2023-03-14T12:26:58.324Z,225.00
2023-03-14T12:27:58.310Z,221.00